KCFS

Tuscola Area Airport

Caro, Michigan, USA
METAR KCFS 170135Z AUTO 22006KT 4SM BR CLR M01/M01 A2995 RMK AO2 T10101010
Observed Flight Rules
Dec-17 @ 01:35 UTC (6 minutes ago) Marginal Visual Flight Rules
Wind Visibility Clouds Conditions
220° at 6 knots 4 miles
  • Clear skies
  • Mist
Temperatures Readings
Current -1°C / 30°F
Dewpoint -1°C / 30°F
Humidity 100%
Altimeter 29.95" Hg
Pressure 1014 hPa
Elevation 214
METAR KCFS 170135Z AUTO 22006KT 4SM BR CLR M01/M01 A2995 RMK AO2 T10101010
Observed Flight Rules
Dec-17 @ 01:35 UTC
(6 minutes ago)
MVFR
Wind Visibility
220° at 6 knots 4 miles
Clouds
  • Clear skies
Conditions
  • Mist
Temperature Dewpoint
-1°C / 30°F -1°C / 30°F
Humidity Altimeter Pressure
100% 29.95" Hg 1014 hPa